sensor_id;sensor_type;location;lat;lon;timestamp;pressure;altitude;pressure_sealevel;temperature;humidity
2549;BME280;1284;53.520;10.248;2023-01-15T00:00:12;98689.75;;;10.03;100.00
2549;BME280;1284;53.520;10.248;2023-01-15T00:02:38;98695.59;;;9.95;99.95
2549;BME280;1284;53.520;10.248;2023-01-15T00:05:04;98712.53;;;9.92;98.79
2549;BME280;1284;53.520;10.248;2023-01-15T00:07:29;98708.97;;;10.02;99.34
2549;BME280;1284;53.520;10.248;2023-01-15T00:09:55;98698.88;;;9.72;97.91
2549;BME280;1284;53.520;10.248;2023-01-15T00:12:20;98700.47;;;9.63;98.03
2549;BME280;1284;53.520;10.248;2023-01-15T00:14:46;98691.56;;;9.73;99.21
2549;BME280;1284;53.520;10.248;2023-01-15T00:17:11;98698.09;;;9.72;98.39
2549;BME280;1284;53.520;10.248;2023-01-15T00:19:37;98699.59;;;9.76;98.41
2549;BME280;1284;53.520;10.248;2023-01-15T00:22:02;98695.38;;;9.79;97.77
2549;BME280;1284;53.520;10.248;2023-01-15T00:24:28;98702.78;;;9.64;97.58
2549;BME280;1284;53.520;10.248;2023-01-15T00:27:12;98704.31;;;9.65;97.33
2549;BME280;1284;53.520;10.248;2023-01-15T00:29:56;98698.50;;;9.70;97.16
2549;BME280;1284;53.520;10.248;2023-01-15T00:32:21;98696.38;;;9.48;96.88
2549;BME280;1284;53.520;10.248;2023-01-15T00:34:47;98702.59;;;9.38;96.62
2549;BME280;1284;53.520;10.248;2023-01-15T00:37:13;98695.41;;;9.21;97.84
2549;BME280;1284;53.520;10.248;2023-01-15T00:39:39;98710.34;;;9.29;97.43
2549;BME280;1284;53.520;10.248;2023-01-15T00:42:04;98707.53;;;9.43;97.12
2549;BME280;1284;53.520;10.248;2023-01-15T00:44:31;98718.91;;;9.61;96.50
2549;BME280;1284;53.520;10.248;2023-01-15T00:46:57;98720.75;;;9.74;96.12
2549;BME280;1284;53.520;10.248;2023-01-15T00:49:23;98731.97;;;9.62;95.83
2549;BME280;1284;53.520;10.248;2023-01-15T00:51:48;98732.72;;;9.63;95.70
2549;BME280;1284;53.520;10.248;2023-01-15T00:54:15;98745.38;;;9.66;95.02
2549;BME280;1284;53.520;10.248;2023-01-15T00:56:41;98735.78;;;9.65;95.43
2549;BME280;1284;53.520;10.248;2023-01-15T00:59:06;98741.56;;;9.63;95.21
2549;BME280;1284;53.520;10.248;2023-01-15T01:01:32;98735.34;;;9.70;94.77
2549;BME280;1284;53.520;10.248;2023-01-15T01:03:57;98736.19;;;9.63;95.10
2549;BME280;1284;53.520;10.248;2023-01-15T01:06:23;98742.81;;;9.45;94.96
2549;BME280;1284;53.520;10.248;2023-01-15T01:08:48;98747.47;;;9.37;95.42
2549;BME280;1284;53.520;10.248;2023-01-15T01:11:17;98751.25;;;9.50;94.47
2549;BME280;1284;53.520;10.248;2023-01-15T01:13:44;98750.84;;;9.52;94.61
2549;BME280;1284;53.520;10.248;2023-01-15T01:16:33;98758.56;;;9.43;95.39
2549;BME280;1284;53.520;10.248;2023-01-15T01:19:21;98748.25;;;9.38;94.99
2549;BME280;1284;53.520;10.248;2023-01-15T01:21:48;98757.84;;;9.35;94.29
2549;BME280;1284;53.520;10.248;2023-01-15T01:24:17;98760.19;;;9.30;94.86
2549;BME280;1284;53.520;10.248;2023-01-15T01:26:43;98759.03;;;9.34;94.69
2549;BME280;1284;53.520;10.248;2023-01-15T01:29:23;98764.28;;;9.52;94.77
2549;BME280;1284;53.520;10.248;2023-01-15T01:31:49;98764.38;;;9.38;94.34
2549;BME280;1284;53.520;10.248;2023-01-15T01:34:17;98757.47;;;9.40;95.07
2549;BME280;1284;53.520;10.248;2023-01-15T01:36:43;98761.81;;;9.17;95.71
2549;BME280;1284;53.520;10.248;2023-01-15T01:39:16;98753.00;;;9.13;95.69
2549;BME280;1284;53.520;10.248;2023-01-15T01:41:42;98750.63;;;9.29;96.06
2549;BME280;1284;53.520;10.248;2023-01-15T01:47:01;98753.34;;;9.18;96.00
2549;BME280;1284;53.520;10.248;2023-01-15T01:49:29;98749.44;;;9.37;95.13
2549;BME280;1284;53.520;10.248;2023-01-15T01:51:58;98751.81;;;9.21;95.72
2549;BME280;1284;53.520;10.248;2023-01-15T01:54:28;98759.53;;;9.08;95.86
2549;BME280;1284;53.520;10.248;2023-01-15T01:56:55;98749.22;;;8.99;96.31
2549;BME280;1284;53.520;10.248;2023-01-15T01:59:23;98748.75;;;9.19;96.32
2549;BME280;1284;53.520;10.248;2023-01-15T02:01:50;98750.28;;;9.23;95.90
2549;BME280;1284;53.520;10.248;2023-01-15T02:04:19;98749.44;;;9.30;95.97
2549;BME280;1284;53.520;10.248;2023-01-15T02:06:46;98745.56;;;9.38;95.17
2549;BME280;1284;53.520;10.248;2023-01-15T02:09:11;98742.16;;;9.30;95.63
2549;BME280;1284;53.520;10.248;2023-01-15T02:11:37;98735.25;;;9.33;95.35
2549;BME280;1284;53.520;10.248;2023-01-15T02:14:43;98736.38;;;9.39;95.18
2549;BME280;1284;53.520;10.248;2023-01-15T02:17:23;98728.72;;;9.30;94.87
2549;BME280;1284;53.520;10.248;2023-01-15T02:28:24;98735.22;;;9.36;94.47
2549;BME280;1284;53.520;10.248;2023-01-15T02:31:25;98721.16;;;9.15;94.71
2549;BME280;1284;53.520;10.248;2023-01-15T02:34:00;98729.53;;;9.24;94.16
2549;BME280;1284;53.520;10.248;2023-01-15T02:36:31;98732.94;;;9.35;93.30
2549;BME280;1284;53.520;10.248;2023-01-15T02:39:02;98737.56;;;9.31;93.23
2549;BME280;1284;53.520;10.248;2023-01-15T02:41:38;98740.22;;;9.34;93.26
2549;BME280;1284;53.520;10.248;2023-01-15T02:44:08;98734.88;;;9.31;92.63
2549;BME280;1284;53.520;10.248;2023-01-15T02:46:37;98730.63;;;9.33;92.48
2549;BME280;1284;53.520;10.248;2023-01-15T02:49:08;98732.88;;;9.42;92.51
2549;BME280;1284;53.520;10.248;2023-01-15T02:51:40;98734.44;;;9.36;91.42
2549;BME280;1284;53.520;10.248;2023-01-15T02:54:12;98732.94;;;9.31;91.00
2549;BME280;1284;53.520;10.248;2023-01-15T02:56:40;98733.41;;;9.19;91.46
2549;BME280;1284;53.520;10.248;2023-01-15T02:59:12;98736.47;;;9.21;91.76
2549;BME280;1284;53.520;10.248;2023-01-15T03:01:49;98731.38;;;9.37;91.30
2549;BME280;1284;53.520;10.248;2023-01-15T03:04:40;98741.38;;;9.30;90.56
2549;BME280;1284;53.520;10.248;2023-01-15T03:09:44;98736.00;;;9.33;90.57
2549;BME280;1284;53.520;10.248;2023-01-15T03:14:55;98734.03;;;9.41;89.97
2549;BME280;1284;53.520;10.248;2023-01-15T03:17:47;98739.06;;;9.39;89.95
2549;BME280;1284;53.520;10.248;2023-01-15T03:20:17;98734.47;;;9.32;89.68
2549;BME280;1284;53.520;10.248;2023-01-15T03:22:48;98739.78;;;9.39;90.20
2549;BME280;1284;53.520;10.248;2023-01-15T03:25:20;98737.22;;;9.22;89.86
2549;BME280;1284;53.520;10.248;2023-01-15T03:27:52;98736.38;;;9.35;90.76
2549;BME280;1284;53.520;10.248;2023-01-15T03:30:21;98738.25;;;9.42;90.11
2549;BME280;1284;53.520;10.248;2023-01-15T03:32:48;98738.41;;;9.17;90.07
2549;BME280;1284;53.520;10.248;2023-01-15T03:35:47;98733.41;;;9.16;90.14
2549;BME280;1284;53.520;10.248;2023-01-15T03:38:28;98722.22;;;9.28;90.26
2549;BME280;1284;53.520;10.248;2023-01-15T03:49:10;98735.97;;;9.40;89.89
2549;BME280;1284;53.520;10.248;2023-01-15T03:51:52;98732.19;;;9.27;89.76
2549;BME280;1284;53.520;10.248;2023-01-15T03:54:47;98728.75;;;9.27;89.79
2549;BME280;1284;53.520;10.248;2023-01-15T03:57:42;98721.84;;;9.26;89.67
2549;BME280;1284;53.520;10.248;2023-01-15T04:02:47;98720.69;;;9.30;90.14
2549;BME280;1284;53.520;10.248;2023-01-15T04:05:16;98707.00;;;9.07;90.58
2549;BME280;1284;53.520;10.248;2023-01-15T04:07:46;98713.44;;;9.20;89.98
2549;BME280;1284;53.520;10.248;2023-01-15T04:10:14;98709.72;;;9.03;90.40
2549;BME280;1284;53.520;10.248;2023-01-15T04:12:40;98712.72;;;9.13;91.33
2549;BME280;1284;53.520;10.248;2023-01-15T04:15:10;98693.59;;;9.07;90.69
2549;BME280;1284;53.520;10.248;2023-01-15T04:17:36;98697.38;;;9.13;90.16
2549;BME280;1284;53.520;10.248;2023-01-15T04:20:04;98702.34;;;9.18;90.44
2549;BME280;1284;53.520;10.248;2023-01-15T04:22:30;98700.84;;;9.10;90.97
2549;BME280;1284;53.520;10.248;2023-01-15T04:24:55;98709.63;;;9.18;91.04
2549;BME280;1284;53.520;10.248;2023-01-15T04:27:21;98704.63;;;9.20;90.37
2549;BME280;1284;53.520;10.248;2023-01-15T04:29:47;98698.03;;;9.28;90.01
2549;BME280;1284;53.520;10.248;2023-01-15T04:32:12;98689.69;;;9.19;89.96
2549;BME280;1284;53.520;10.248;2023-01-15T04:34:38;98690.75;;;9.28;90.25
2549;BME280;1284;53.520;10.248;2023-01-15T04:37:03;98689.25;;;9.24;90.43
2549;BME280;1284;53.520;10.248;2023-01-15T04:39:29;98683.53;;;9.18;89.79
2549;BME280;1284;53.520;10.248;2023-01-15T04:41:54;98693.63;;;9.03;90.73
2549;BME280;1284;53.520;10.248;2023-01-15T04:44:38;98702.41;;;9.07;91.05
2549;BME280;1284;53.520;10.248;2023-01-15T04:47:04;98699.69;;;9.11;90.67
2549;BME280;1284;53.520;10.248;2023-01-15T04:49:30;98693.19;;;9.08;90.63
2549;BME280;1284;53.520;10.248;2023-01-15T04:51:55;98701.28;;;9.01;91.22
2549;BME280;1284;53.520;10.248;2023-01-15T04:54:21;98695.84;;;9.12;90.65
2549;BME280;1284;53.520;10.248;2023-01-15T04:56:48;98689.34;;;9.09;90.54
2549;BME280;1284;53.520;10.248;2023-01-15T04:59:16;98695.50;;;9.06;90.97
2549;BME280;1284;53.520;10.248;2023-01-15T05:01:42;98708.91;;;9.10;90.73
2549;BME280;1284;53.520;10.248;2023-01-15T05:04:07;98701.22;;;9.12;90.44
2549;BME280;1284;53.520;10.248;2023-01-15T05:06:33;98678.25;;;9.07;90.92
2549;BME280;1284;53.520;10.248;2023-01-15T05:09:00;98682.16;;;8.89;91.49
2549;BME280;1284;53.520;10.248;2023-01-15T05:11:26;98685.31;;;8.80;91.54
2549;BME280;1284;53.520;10.248;2023-01-15T05:13:52;98681.78;;;8.90;90.89
2549;BME280;1284;53.520;10.248;2023-01-15T05:16:20;98691.38;;;8.91;91.55
2549;BME280;1284;53.520;10.248;2023-01-15T05:18:46;98684.53;;;8.80;91.61
2549;BME280;1284;53.520;10.248;2023-01-15T05:21:16;98672.38;;;8.61;91.53
2549;BME280;1284;53.520;10.248;2023-01-15T05:23:43;98684.19;;;8.67;91.37
2549;BME280;1284;53.520;10.248;2023-01-15T05:26:08;98673.03;;;8.76;91.54
2549;BME280;1284;53.520;10.248;2023-01-15T05:28:34;98677.56;;;8.93;90.60
2549;BME280;1284;53.520;10.248;2023-01-15T05:31:05;98676.88;;;8.78;90.73
2549;BME280;1284;53.520;10.248;2023-01-15T05:33:31;98670.31;;;8.86;90.90
2549;BME280;1284;53.520;10.248;2023-01-15T05:36:01;98675.66;;;8.90;90.51
2549;BME280;1284;53.520;10.248;2023-01-15T05:38:26;98670.31;;;8.86;89.52
2549;BME280;1284;53.520;10.248;2023-01-15T05:40:52;98674.94;;;8.82;90.24
2549;BME280;1284;53.520;10.248;2023-01-15T05:43:17;98680.00;;;8.63;91.28
2549;BME280;1284;53.520;10.248;2023-01-15T05:45:42;98673.00;;;8.83;90.50
2549;BME280;1284;53.520;10.248;2023-01-15T05:48:08;98680.38;;;8.65;91.04
2549;BME280;1284;53.520;10.248;2023-01-15T05:50:33;98689.84;;;8.87;90.09
2549;BME280;1284;53.520;10.248;2023-01-15T05:52:59;98699.13;;;8.72;89.95
2549;BME280;1284;53.520;10.248;2023-01-15T05:55:24;98680.69;;;8.77;89.91
2549;BME280;1284;53.520;10.248;2023-01-15T05:57:50;98689.91;;;8.80;89.37
2549;BME280;1284;53.520;10.248;2023-01-15T06:00:15;98683.72;;;8.83;89.50
2549;BME280;1284;53.520;10.248;2023-01-15T06:02:41;98673.09;;;8.65;89.90
2549;BME280;1284;53.520;10.248;2023-01-15T06:05:07;98678.09;;;8.60;90.15
2549;BME280;1284;53.520;10.248;2023-01-15T06:07:32;98671.16;;;8.69;90.41
2549;BME280;1284;53.520;10.248;2023-01-15T06:09:58;98665.50;;;8.53;90.18
2549;BME280;1284;53.520;10.248;2023-01-15T06:12:23;98667.78;;;8.55;90.25
2549;BME280;1284;53.520;10.248;2023-01-15T06:14:49;98667.72;;;8.65;90.24
2549;BME280;1284;53.520;10.248;2023-01-15T06:17:14;98672.00;;;8.59;90.29
2549;BME280;1284;53.520;10.248;2023-01-15T06:19:39;98673.03;;;8.79;89.30
2549;BME280;1284;53.520;10.248;2023-01-15T06:22:05;98679.59;;;8.68;89.73
2549;BME280;1284;53.520;10.248;2023-01-15T06:24:30;98686.16;;;8.56;90.29
2549;BME280;1284;53.520;10.248;2023-01-15T06:29:21;98691.16;;;8.54;91.05
2549;BME280;1284;53.520;10.248;2023-01-15T06:31:47;98688.84;;;8.56;91.02
2549;BME280;1284;53.520;10.248;2023-01-15T06:34:13;98690.72;;;8.66;90.70
2549;BME280;1284;53.520;10.248;2023-01-15T06:36:38;98681.09;;;8.76;90.04
2549;BME280;1284;53.520;10.248;2023-01-15T06:39:04;98686.09;;;8.74;90.44
2549;BME280;1284;53.520;10.248;2023-01-15T06:41:29;98685.75;;;8.65;90.66
2549;BME280;1284;53.520;10.248;2023-01-15T06:44:16;98680.00;;;8.63;90.80
2549;BME280;1284;53.520;10.248;2023-01-15T06:47:17;98680.00;;;8.66;90.73
2549;BME280;1284;53.520;10.248;2023-01-15T06:49:48;98685.34;;;8.66;90.87
2549;BME280;1284;53.520;10.248;2023-01-15T06:52:14;98677.34;;;8.59;91.63
2549;BME280;1284;53.520;10.248;2023-01-15T06:54:39;98672.78;;;8.49;91.63
2549;BME280;1284;53.520;10.248;2023-01-15T06:59:50;98673.16;;;8.51;91.63
2549;BME280;1284;53.520;10.248;2023-01-15T07:02:16;98683.13;;;8.47;91.56
2549;BME280;1284;53.520;10.248;2023-01-15T07:04:42;98682.38;;;8.47;91.63
2549;BME280;1284;53.520;10.248;2023-01-15T07:07:07;98687.38;;;8.38;91.68
2549;BME280;1284;53.520;10.248;2023-01-15T07:09:33;98685.81;;;8.40;91.87
2549;BME280;1284;53.520;10.248;2023-01-15T07:11:58;98688.09;;;8.59;91.65
2549;BME280;1284;53.520;10.248;2023-01-15T07:14:25;98690.00;;;8.55;91.11
2549;BME280;1284;53.520;10.248;2023-01-15T07:16:52;98680.88;;;8.35;91.60
2549;BME280;1284;53.520;10.248;2023-01-15T07:19:18;98676.28;;;8.39;91.70
2549;BME280;1284;53.520;10.248;2023-01-15T07:21:44;98673.97;;;8.38;92.12
2549;BME280;1284;53.520;10.248;2023-01-15T07:24:10;98667.81;;;8.44;92.27
2549;BME280;1284;53.520;10.248;2023-01-15T07:26:36;98668.25;;;8.29;91.94
2549;BME280;1284;53.520;10.248;2023-01-15T07:29:03;98672.44;;;8.33;91.67
2549;BME280;1284;53.520;10.248;2023-01-15T07:31:28;98685.09;;;8.29;91.89
2549;BME280;1284;53.520;10.248;2023-01-15T07:33:57;98677.81;;;8.37;92.32
2549;BME280;1284;53.520;10.248;2023-01-15T07:36:23;98674.78;;;8.28;92.00
2549;BME280;1284;53.520;10.248;2023-01-15T07:38:49;98688.53;;;8.37;91.53
2549;BME280;1284;53.520;10.248;2023-01-15T07:41:14;98680.91;;;8.32;92.10
2549;BME280;1284;53.520;10.248;2023-01-15T07:43:58;98677.81;;;8.33;91.95
2549;BME280;1284;53.520;10.248;2023-01-15T07:46:42;98683.09;;;8.54;91.12
2549;BME280;1284;53.520;10.248;2023-01-15T07:49:26;98686.56;;;8.51;90.70
2549;BME280;1284;53.520;10.248;2023-01-15T07:52:14;98685.47;;;8.42;90.66
2549;BME280;1284;53.520;10.248;2023-01-15T07:54:40;98695.41;;;8.41;90.80
2549;BME280;1284;53.520;10.248;2023-01-15T07:57:06;98695.03;;;8.43;91.38
2549;BME280;1284;53.520;10.248;2023-01-15T07:59:32;98691.94;;;8.44;90.54
2549;BME280;1284;53.520;10.248;2023-01-15T08:01:57;98688.88;;;8.53;90.45
2549;BME280;1284;53.520;10.248;2023-01-15T08:04:23;98691.91;;;8.55;89.86
2549;BME280;1284;53.520;10.248;2023-01-15T08:06:48;98685.47;;;8.42;90.14
2549;BME280;1284;53.520;10.248;2023-01-15T08:09:14;98695.81;;;8.40;90.86
2549;BME280;1284;53.520;10.248;2023-01-15T08:11:39;98705.72;;;8.53;89.79
2549;BME280;1284;53.520;10.248;2023-01-15T08:14:24;98701.88;;;8.61;89.79
2549;BME280;1284;53.520;10.248;2023-01-15T08:17:08;98698.81;;;8.59;89.38
2549;BME280;1284;53.520;10.248;2023-01-15T08:19:33;98693.78;;;8.68;88.58
2549;BME280;1284;53.520;10.248;2023-01-15T08:21:59;98686.13;;;8.63;88.27
2549;BME280;1284;53.520;10.248;2023-01-15T08:24:26;98695.41;;;8.45;88.33
2549;BME280;1284;53.520;10.248;2023-01-15T08:26:53;98695.44;;;8.34;88.95
2549;BME280;1284;53.520;10.248;2023-01-15T08:29:20;98690.78;;;8.52;88.75
2549;BME280;1284;53.520;10.248;2023-01-15T08:31:46;98698.81;;;8.52;88.13
2549;BME280;1284;53.520;10.248;2023-01-15T08:34:12;98706.88;;;8.49;88.17
2549;BME280;1284;53.520;10.248;2023-01-15T08:36:38;98714.50;;;8.61;88.10
2549;BME280;1284;53.520;10.248;2023-01-15T08:39:03;98710.66;;;8.69;86.56
2549;BME280;1284;53.520;10.248;2023-01-15T08:41:30;98714.47;;;8.71;86.74
2549;BME280;1284;53.520;10.248;2023-01-15T08:46:21;98703.72;;;8.71;86.52
2549;BME280;1284;53.520;10.248;2023-01-15T08:48:46;98709.06;;;8.78;86.60
2549;BME280;1284;53.520;10.248;2023-01-15T08:51:12;98690.72;;;8.66;86.29
2549;BME280;1284;53.520;10.248;2023-01-15T08:53:38;98705.72;;;8.46;85.75
2549;BME280;1284;53.520;10.248;2023-01-15T08:56:11;98705.34;;;8.44;85.58
2549;BME280;1284;53.520;10.248;2023-01-15T08:58:37;98700.31;;;8.60;85.95
2549;BME280;1284;53.520;10.248;2023-01-15T09:01:04;98687.72;;;8.50;85.09
2549;BME280;1284;53.520;10.248;2023-01-15T09:03:30;98690.78;;;8.52;85.08
2549;BME280;1284;53.520;10.248;2023-01-15T09:06:00;98682.34;;;8.57;85.01
2549;BME280;1284;53.520;10.248;2023-01-15T09:08:27;98676.91;;;8.68;84.70
2549;BME280;1284;53.520;10.248;2023-01-15T09:11:00;98679.97;;;8.70;84.43
2549;BME280;1284;53.520;10.248;2023-01-15T09:13:27;98679.25;;;8.62;84.74
2549;BME280;1284;53.520;10.248;2023-01-15T09:15:53;98679.66;;;8.54;83.87
2549;BME280;1284;53.520;10.248;2023-01-15T09:18:18;98679.22;;;8.66;83.51
2549;BME280;1284;53.520;10.248;2023-01-15T09:20:48;98683.09;;;8.54;83.84
2549;BME280;1284;53.520;10.248;2023-01-15T09:23:14;98664.00;;;8.38;84.17
2549;BME280;1284;53.520;10.248;2023-01-15T09:25:40;98667.06;;;8.40;84.51
2549;BME280;1284;53.520;10.248;2023-01-15T09:28:06;98665.50;;;8.53;83.92
2549;BME280;1284;53.520;10.248;2023-01-15T09:30:34;98664.66;;;8.70;83.42
2549;BME280;1284;53.520;10.248;2023-01-15T09:33:00;98673.84;;;8.69;82.64
2549;BME280;1284;53.520;10.248;2023-01-15T09:35:25;98674.25;;;8.64;81.63
2549;BME280;1284;53.520;10.248;2023-01-15T09:37:51;98676.66;;;8.41;82.71
2549;BME280;1284;53.520;10.248;2023-01-15T09:45:48;98677.03;;;8.40;80.60
2549;BME280;1284;53.520;10.248;2023-01-15T09:48:22;98685.50;;;8.28;80.50
2549;BME280;1284;53.520;10.248;2023-01-15T09:51:54;98677.78;;;8.40;78.66
2549;BME280;1284;53.520;10.248;2023-01-15T09:56:30;98682.75;;;8.38;76.76
2549;BME280;1284;53.520;10.248;2023-01-15T09:58:58;98689.09;;;8.86;75.73
2549;BME280;1284;53.520;10.248;2023-01-15T10:01:31;98684.56;;;8.73;74.65
2549;BME280;1284;53.520;10.248;2023-01-15T10:04:02;98680.66;;;8.88;74.10
2549;BME280;1284;53.520;10.248;2023-01-15T10:06:32;98696.03;;;8.77;74.52
2549;BME280;1284;53.520;10.248;2023-01-15T10:09:12;98686.78;;;8.92;73.74
2549;BME280;1284;53.520;10.248;2023-01-15T10:11:50;98694.63;;;9.24;73.06
2549;BME280;1284;53.520;10.248;2023-01-15T10:17:12;98679.00;;;9.12;73.01
2549;BME280;1284;53.520;10.248;2023-01-15T10:19:42;98693.19;;;9.08;73.12
2549;BME280;1284;53.520;10.248;2023-01-15T10:22:27;98685.81;;;9.23;72.99
2549;BME280;1284;53.520;10.248;2023-01-15T10:24:56;98702.16;;;9.43;71.98
2549;BME280;1284;53.520;10.248;2023-01-15T10:27:24;98708.91;;;9.14;73.08
2549;BME280;1284;53.520;10.248;2023-01-15T10:30:45;98701.03;;;9.40;72.86
2549;BME280;1284;53.520;10.248;2023-01-15T10:32:54;98714.53;;;9.30;71.50
2549;BME280;1284;53.520;10.248;2023-01-15T10:38:25;98677.75;;;9.23;71.21
2549;BME280;1284;53.520;10.248;2023-01-15T10:41:12;98692.28;;;9.29;70.06
2549;BME280;1284;53.520;10.248;2023-01-15T10:46:25;98693.03;;;9.30;70.25
2549;BME280;1284;53.520;10.248;2023-01-15T10:48:58;98705.06;;;9.11;68.94
2549;BME280;1284;53.520;10.248;2023-01-15T10:51:30;98680.81;;;9.25;69.46
2549;BME280;1284;53.520;10.248;2023-01-15T10:54:05;98698.41;;;9.30;68.43
2549;BME280;1284;53.520;10.248;2023-01-15T11:01:33;98680.69;;;8.84;67.34
2549;BME280;1284;53.520;10.248;2023-01-15T11:03:58;98690.13;;;9.06;68.05
2549;BME280;1284;53.520;10.248;2023-01-15T11:06:24;98687.56;;;8.85;67.12
2549;BME280;1284;53.520;10.248;2023-01-15T11:08:56;98664.28;;;8.65;67.91
2549;BME280;1284;53.520;10.248;2023-01-15T11:14:15;98656.38;;;9.09;67.69
2549;BME280;1284;53.520;10.248;2023-01-15T11:17:00;98658.22;;;9.16;67.73
2549;BME280;1284;53.520;10.248;2023-01-15T11:19:39;98650.97;;;9.13;67.30
2549;BME280;1284;53.520;10.248;2023-01-15T11:22:13;98634.81;;;9.20;66.87
2549;BME280;1284;53.520;10.248;2023-01-15T11:24:50;98655.78;;;9.35;67.36
2549;BME280;1284;53.520;10.248;2023-01-15T11:27:19;98644.44;;;9.17;66.52
2549;BME280;1284;53.520;10.248;2023-01-15T11:29:51;98637.47;;;9.20;67.28
2549;BME280;1284;53.520;10.248;2023-01-15T11:32:27;98628.34;;;9.14;66.96
2549;BME280;1284;53.520;10.248;2023-01-15T11:34:55;98639.50;;;9.08;66.36
2549;BME280;1284;53.520;10.248;2023-01-15T11:37:22;98632.94;;;9.13;66.33
2549;BME280;1284;53.520;10.248;2023-01-15T11:40:17;98615.38;;;9.01;67.78
2549;BME280;1284;53.520;10.248;2023-01-15T11:42:48;98634.47;;;9.14;67.82
2549;BME280;1284;53.520;10.248;2023-01-15T11:45:32;98627.28;;;8.97;67.66
2549;BME280;1284;53.520;10.248;2023-01-15T11:48:21;98626.59;;;9.37;67.22
2549;BME280;1284;53.520;10.248;2023-01-15T11:51:15;98635.50;;;9.31;66.91
2549;BME280;1284;53.520;10.248;2023-01-15T11:53:53;98628.88;;;9.42;66.79
2549;BME280;1284;53.520;10.248;2023-01-15T11:56:24;98630.50;;;9.29;69.23
2549;BME280;1284;53.520;10.248;2023-01-15T11:58:53;98680.97;;;9.00;74.36
2549;BME280;1284;53.520;10.248;2023-01-15T12:01:34;98699.47;;;8.84;78.53
2549;BME280;1284;53.520;10.248;2023-01-15T12:04:19;98716.88;;;8.13;85.62
2549;BME280;1284;53.520;10.248;2023-01-15T12:06:47;98719.97;;;8.11;85.97
2549;BME280;1284;53.520;10.248;2023-01-15T12:09:25;98756.75;;;7.97;87.68
2549;BME280;1284;53.520;10.248;2023-01-15T12:15:11;98644.94;;;6.74;90.67
2549;BME280;1284;53.520;10.248;2023-01-15T12:20:31;98654.16;;;7.08;92.38
2549;BME280;1284;53.520;10.248;2023-01-15T12:26:24;98655.34;;;7.21;90.87
2549;BME280;1284;53.520;10.248;2023-01-15T12:31:48;98648.44;;;7.17;90.44
2549;BME280;1284;53.520;10.248;2023-01-15T12:39:22;98628.19;;;7.26;90.87
2549;BME280;1284;53.520;10.248;2023-01-15T12:41:53;98621.69;;;7.42;91.42
2549;BME280;1284;53.520;10.248;2023-01-15T12:44:54;98625.88;;;7.64;89.54
2549;BME280;1284;53.520;10.248;2023-01-15T12:52:53;98619.00;;;7.59;92.86
2549;BME280;1284;53.520;10.248;2023-01-15T12:55:25;98619.00;;;7.59;93.34
2549;BME280;1284;53.520;10.248;2023-01-15T12:57:55;98616.66;;;7.79;93.23
2549;BME280;1284;53.520;10.248;2023-01-15T13:00:35;98623.59;;;7.62;92.88
2549;BME280;1284;53.520;10.248;2023-01-15T13:03:22;98604.78;;;7.87;92.75
2549;BME280;1284;53.520;10.248;2023-01-15T13:05:58;98597.84;;;8.00;92.32
2549;BME280;1284;53.520;10.248;2023-01-15T13:10:54;98587.53;;;7.95;91.79
2549;BME280;1284;53.520;10.248;2023-01-15T13:13:25;98577.59;;;7.92;91.73
2549;BME280;1284;53.520;10.248;2023-01-15T13:16:14;98569.91;;;8.01;92.50
2549;BME280;1284;53.520;10.248;2023-01-15T13:19:16;98562.97;;;8.10;90.80
2549;BME280;1284;53.520;10.248;2023-01-15T13:21:47;98572.50;;;8.22;90.71
2549;BME280;1284;53.520;10.248;2023-01-15T13:32:25;98574.72;;;8.45;87.51
2549;BME280;1284;53.520;10.248;2023-01-15T13:35:29;98583.91;;;8.40;87.31
2549;BME280;1284;53.520;10.248;2023-01-15T13:38:02;98583.09;;;8.57;86.71
2549;BME280;1284;53.520;10.248;2023-01-15T13:40:32;98582.00;;;8.41;85.40
2549;BME280;1284;53.520;10.248;2023-01-15T13:43:01;98570.97;;;8.17;85.46
2549;BME280;1284;53.520;10.248;2023-01-15T13:48:04;98570.22;;;8.28;84.22
2549;BME280;1284;53.520;10.248;2023-01-15T13:50:32;98561.75;;;8.29;83.94
2549;BME280;1284;53.520;10.248;2023-01-15T13:55:51;98577.03;;;8.39;82.32
2549;BME280;1284;53.520;10.248;2023-01-15T14:00:59;98594.38;;;8.10;81.62
2549;BME280;1284;53.520;10.248;2023-01-15T14:03:30;98586.22;;;8.45;82.45
2549;BME280;1284;53.520;10.248;2023-01-15T14:06:08;98575.34;;;8.66;83.54
2549;BME280;1284;53.520;10.248;2023-01-15T14:08:43;98573.81;;;8.69;85.35
2549;BME280;1284;53.520;10.248;2023-01-15T14:28:05;98559.38;;;8.49;81.49
2549;BME280;1284;53.520;10.248;2023-01-15T14:36:09;98555.53;;;8.53;80.10
2549;BME280;1284;53.520;10.248;2023-01-15T14:38:36;98563.56;;;8.50;79.74
2549;BME280;1284;53.520;10.248;2023-01-15T14:41:04;98557.31;;;8.70;80.30
2549;BME280;1284;53.520;10.248;2023-01-15T14:43:34;98554.22;;;8.75;78.88
2549;BME280;1284;53.520;10.248;2023-01-15T14:46:20;98559.31;;;8.59;78.77
2549;BME280;1284;53.520;10.248;2023-01-15T14:48:49;98553.16;;;8.62;78.77
2549;BME280;1284;53.520;10.248;2023-01-15T14:51:17;98561.31;;;8.41;78.38
2549;BME280;1284;53.520;10.248;2023-01-15T14:54:08;98563.81;;;8.76;78.03
2549;BME280;1284;53.520;10.248;2023-01-15T14:56:43;98554.63;;;8.70;77.06
2549;BME280;1284;53.520;10.248;2023-01-15T15:01:50;98556.50;;;8.80;76.83
2549;BME280;1284;53.520;10.248;2023-01-15T15:04:36;98561.50;;;8.75;76.04
2549;BME280;1284;53.520;10.248;2023-01-15T15:07:22;98564.69;;;8.56;76.26
2549;BME280;1284;53.520;10.248;2023-01-15T15:10:00;98558.84;;;8.71;76.07
2549;BME280;1284;53.520;10.248;2023-01-15T15:23:35;98596.41;;;8.71;77.77
2549;BME280;1284;53.520;10.248;2023-01-15T15:26:06;98605.56;;;8.77;78.87
2549;BME280;1284;53.520;10.248;2023-01-15T15:28:41;98607.47;;;8.77;80.49
2549;BME280;1284;53.520;10.248;2023-01-15T15:31:08;98609.50;;;8.62;81.63
2549;BME280;1284;53.520;10.248;2023-01-15T15:33:39;98624.50;;;8.53;82.84
2549;BME280;1284;53.520;10.248;2023-01-15T15:36:06;98626.75;;;8.61;83.80
2549;BME280;1284;53.520;10.248;2023-01-15T15:38:33;98624.03;;;8.68;84.13
2549;BME280;1284;53.520;10.248;2023-01-15T15:41:04;98633.72;;;8.41;84.92
2549;BME280;1284;53.520;10.248;2023-01-15T15:43:51;98651.00;;;8.33;85.41
2549;BME280;1284;53.520;10.248;2023-01-15T15:49:57;98668.63;;;8.31;88.47
2549;BME280;1284;53.520;10.248;2023-01-15T15:52:22;98666.00;;;8.06;90.00
2549;BME280;1284;53.520;10.248;2023-01-15T15:55:00;98670.19;;;8.10;90.92
2549;BME280;1284;53.520;10.248;2023-01-15T15:57:29;98671.31;;;8.13;90.87
2549;BME280;1284;53.520;10.248;2023-01-15T16:02:24;98684.75;;;8.06;92.58
2549;BME280;1284;53.520;10.248;2023-01-15T16:04:51;98688.19;;;8.06;92.47